sensor_id;sensor_type;location;lat;lon;timestamp;pressure;altitude;pressure_sealevel;temperature;humidity
73332;BME280;61560;33.718;73.040;2023-04-29T00:00:35;94443.31;;;19.49;60.91
73332;BME280;61560;33.718;73.040;2023-04-29T00:03:01;94441.31;;;19.49;60.90
73332;BME280;61560;33.718;73.040;2023-04-29T00:05:29;94434.97;;;19.49;61.31
73332;BME280;61560;33.718;73.040;2023-04-29T00:07:55;94455.78;;;19.53;61.52
73332;BME280;61560;33.718;73.040;2023-04-29T00:10:23;94448.19;;;19.54;61.61
73332;BME280;61560;33.718;73.040;2023-04-29T00:12:50;94448.66;;;19.52;61.85
73332;BME280;61560;33.718;73.040;2023-04-29T00:15:17;94454.22;;;19.52;62.34
73332;BME280;61560;33.718;73.040;2023-04-29T00:17:44;94463.53;;;19.49;63.06
73332;BME280;61560;33.718;73.040;2023-04-29T00:20:11;94456.13;;;19.46;63.08
73332;BME280;61560;33.718;73.040;2023-04-29T00:22:38;94456.13;;;19.46;63.45
73332;BME280;61560;33.718;73.040;2023-04-29T00:25:05;94460.19;;;19.45;63.44
73332;BME280;61560;33.718;73.040;2023-04-29T00:27:34;94473.59;;;19.47;63.38
73332;BME280;61560;33.718;73.040;2023-04-29T00:30:01;94482.41;;;19.45;63.43
73332;BME280;61560;33.718;73.040;2023-04-29T00:32:28;94475.78;;;19.43;63.60
73332;BME280;61560;33.718;73.040;2023-04-29T00:34:55;94485.47;;;19.47;63.58
73332;BME280;61560;33.718;73.040;2023-04-29T00:37:22;94487.28;;;19.50;63.46
73332;BME280;61560;33.718;73.040;2023-04-29T00:39:48;94486.34;;;19.53;63.60
73332;BME280;61560;33.718;73.040;2023-04-29T00:42:15;94489.56;;;19.52;63.65
73332;BME280;61560;33.718;73.040;2023-04-29T00:44:42;94489.28;;;19.50;63.42
73332;BME280;61560;33.718;73.040;2023-04-29T00:47:08;94492.34;;;19.52;63.20
73332;BME280;61560;33.718;73.040;2023-04-29T00:49:40;94492.91;;;19.56;63.08
73332;BME280;61560;33.718;73.040;2023-04-29T00:52:07;94495.53;;;19.59;63.20
73332;BME280;61560;33.718;73.040;2023-04-29T00:54:36;94493.13;;;19.67;63.12
73332;BME280;61560;33.718;73.040;2023-04-29T00:57:03;94497.81;;;19.76;62.85
73332;BME280;61560;33.718;73.040;2023-04-29T00:59:32;94494.63;;;19.83;62.74
73332;BME280;61560;33.718;73.040;2023-04-29T01:02:03;94493.63;;;19.80;63.01
73332;BME280;61560;33.718;73.040;2023-04-29T01:04:30;94501.25;;;19.85;63.25
73332;BME280;61560;33.718;73.040;2023-04-29T01:07:13;94505.38;;;19.90;63.13
73332;BME280;61560;33.718;73.040;2023-04-29T01:10:09;94509.72;;;19.91;63.08
73332;BME280;61560;33.718;73.040;2023-04-29T01:18:22;94516.00;;;20.06;63.46
73332;BME280;61560;33.718;73.040;2023-04-29T01:20:52;94524.91;;;20.10;63.52
73332;BME280;61560;33.718;73.040;2023-04-29T01:23:18;94532.03;;;20.11;63.78
73332;BME280;61560;33.718;73.040;2023-04-29T01:25:46;94531.06;;;20.14;63.66
73332;BME280;61560;33.718;73.040;2023-04-29T01:28:46;94536.34;;;20.26;63.39
73332;BME280;61560;33.718;73.040;2023-04-29T01:31:40;94536.81;;;20.39;63.10
73332;BME280;61560;33.718;73.040;2023-04-29T01:34:13;94534.56;;;20.58;62.89
73332;BME280;61560;33.718;73.040;2023-04-29T01:37:09;94537.56;;;20.75;62.02
73332;BME280;61560;33.718;73.040;2023-04-29T01:39:56;94538.56;;;20.92;61.56
73332;BME280;61560;33.718;73.040;2023-04-29T01:45:39;94543.06;;;21.24;60.96
73332;BME280;61560;33.718;73.040;2023-04-29T01:48:14;94539.06;;;21.51;60.73
73332;BME280;61560;33.718;73.040;2023-04-29T01:50:42;94541.19;;;21.81;59.43
73332;BME280;61560;33.718;73.040;2023-04-29T01:53:15;94534.34;;;22.08;58.88
73332;BME280;61560;33.718;73.040;2023-04-29T01:55:42;94535.81;;;22.35;58.15
73332;BME280;61560;33.718;73.040;2023-04-29T01:58:18;94540.59;;;22.60;57.44
73332;BME280;61560;33.718;73.040;2023-04-29T02:00:48;94535.91;;;22.83;56.66
73332;BME280;61560;33.718;73.040;2023-04-29T02:03:15;94530.94;;;23.03;56.38
73332;BME280;61560;33.718;73.040;2023-04-29T02:05:46;94539.00;;;23.38;54.69
73332;BME280;61560;33.718;73.040;2023-04-29T02:08:16;94539.19;;;23.99;53.31
73332;BME280;61560;33.718;73.040;2023-04-29T02:10:55;94540.78;;;24.77;51.32
73332;BME280;61560;33.718;73.040;2023-04-29T02:13:42;94531.66;;;25.51;48.42
73332;BME280;61560;33.718;73.040;2023-04-29T02:16:12;94542.50;;;26.23;46.66
73332;BME280;61560;33.718;73.040;2023-04-29T02:18:54;94535.28;;;26.92;44.85
73332;BME280;61560;33.718;73.040;2023-04-29T02:21:21;94541.56;;;27.52;44.17
73332;BME280;61560;33.718;73.040;2023-04-29T02:23:47;94539.63;;;28.03;42.69
73332;BME280;61560;33.718;73.040;2023-04-29T02:26:14;94541.69;;;28.53;42.02
73332;BME280;61560;33.718;73.040;2023-04-29T02:28:41;94549.00;;;29.06;40.93
73332;BME280;61560;33.718;73.040;2023-04-29T02:31:08;94551.88;;;29.45;39.68
73332;BME280;61560;33.718;73.040;2023-04-29T02:33:35;94556.97;;;29.73;38.90
73332;BME280;61560;33.718;73.040;2023-04-29T02:36:01;94559.88;;;30.07;37.78
73332;BME280;61560;33.718;73.040;2023-04-29T02:38:28;94562.31;;;30.36;37.28
73332;BME280;61560;33.718;73.040;2023-04-29T02:40:55;94559.38;;;30.42;37.04
73332;BME280;61560;33.718;73.040;2023-04-29T02:43:22;94553.72;;;30.62;37.07
73332;BME280;61560;33.718;73.040;2023-04-29T02:45:49;94551.75;;;30.70;36.01
73332;BME280;61560;33.718;73.040;2023-04-29T02:48:15;94548.06;;;30.42;35.89
73332;BME280;61560;33.718;73.040;2023-04-29T02:50:42;94561.34;;;30.21;37.20
73332;BME280;61560;33.718;73.040;2023-04-29T02:53:08;94560.44;;;30.26;37.19
73332;BME280;61560;33.718;73.040;2023-04-29T02:55:36;94566.88;;;30.39;37.28
73332;BME280;61560;33.718;73.040;2023-04-29T02:58:07;94561.00;;;30.37;35.92
73332;BME280;61560;33.718;73.040;2023-04-29T03:00:34;94562.19;;;30.29;36.04
73332;BME280;61560;33.718;73.040;2023-04-29T03:03:01;94558.38;;;29.92;35.78
73332;BME280;61560;33.718;73.040;2023-04-29T03:05:28;94559.47;;;29.50;37.56
73332;BME280;61560;33.718;73.040;2023-04-29T03:07:55;94563.63;;;28.91;39.49
73332;BME280;61560;33.718;73.040;2023-04-29T03:10:22;94569.34;;;28.35;40.07
73332;BME280;61560;33.718;73.040;2023-04-29T03:12:48;94567.88;;;27.97;40.95
73332;BME280;61560;33.718;73.040;2023-04-29T03:15:15;94572.50;;;27.52;42.16
73332;BME280;61560;33.718;73.040;2023-04-29T03:17:43;94568.28;;;27.40;42.30
73332;BME280;61560;33.718;73.040;2023-04-29T03:20:12;94574.22;;;27.31;42.75
73332;BME280;61560;33.718;73.040;2023-04-29T03:22:39;94570.72;;;27.25;42.48
73332;BME280;61560;33.718;73.040;2023-04-29T03:25:06;94578.16;;;27.22;42.01
73332;BME280;61560;33.718;73.040;2023-04-29T03:27:33;94579.69;;;27.23;40.91
73332;BME280;61560;33.718;73.040;2023-04-29T03:29:59;94590.19;;;27.23;41.07
73332;BME280;61560;33.718;73.040;2023-04-29T03:32:26;94584.56;;;27.23;41.23
73332;BME280;61560;33.718;73.040;2023-04-29T03:34:52;94586.03;;;27.29;41.09
73332;BME280;61560;33.718;73.040;2023-04-29T03:37:35;94591.31;;;27.38;41.23
73332;BME280;61560;33.718;73.040;2023-04-29T03:40:18;94593.53;;;27.45;41.85
73332;BME280;61560;33.718;73.040;2023-04-29T03:42:45;94597.53;;;27.55;41.86
73332;BME280;61560;33.718;73.040;2023-04-29T03:45:11;94603.72;;;27.73;41.12
73332;BME280;61560;33.718;73.040;2023-04-29T03:47:39;94597.16;;;28.07;39.96
73332;BME280;61560;33.718;73.040;2023-04-29T03:50:06;94601.25;;;28.62;39.59
73332;BME280;61560;33.718;73.040;2023-04-29T03:52:34;94595.19;;;29.35;37.17
73332;BME280;61560;33.718;73.040;2023-04-29T03:55:09;94601.88;;;30.36;35.84
73332;BME280;61560;33.718;73.040;2023-04-29T03:57:37;94599.19;;;31.47;33.76
73332;BME280;61560;33.718;73.040;2023-04-29T04:00:04;94601.34;;;32.61;31.32
73332;BME280;61560;33.718;73.040;2023-04-29T04:02:39;94592.75;;;33.42;29.76
73332;BME280;61560;33.718;73.040;2023-04-29T04:05:08;94594.03;;;33.94;29.46
73332;BME280;61560;33.718;73.040;2023-04-29T04:07:36;94585.53;;;34.56;28.41
73332;BME280;61560;33.718;73.040;2023-04-29T04:10:29;94592.19;;;35.16;28.06
73332;BME280;61560;33.718;73.040;2023-04-29T04:12:59;94584.22;;;35.81;27.20
73332;BME280;61560;33.718;73.040;2023-04-29T04:15:25;94580.50;;;36.47;26.17
73332;BME280;61560;33.718;73.040;2023-04-29T04:17:55;94577.25;;;37.04;24.95
73332;BME280;61560;33.718;73.040;2023-04-29T04:20:22;94570.84;;;37.58;23.53
73332;BME280;61560;33.718;73.040;2023-04-29T04:22:49;94571.28;;;38.20;22.64
73332;BME280;61560;33.718;73.040;2023-04-29T04:25:21;94580.03;;;38.50;22.75
73332;BME280;61560;33.718;73.040;2023-04-29T04:27:48;94576.41;;;38.60;22.18
73332;BME280;61560;33.718;73.040;2023-04-29T04:30:25;94580.69;;;39.08;21.83
73332;BME280;61560;33.718;73.040;2023-04-29T04:32:51;94576.28;;;38.67;21.56
73332;BME280;61560;33.718;73.040;2023-04-29T04:35:18;94579.75;;;39.25;21.84
73332;BME280;61560;33.718;73.040;2023-04-29T04:37:45;94579.41;;;39.40;21.40
73332;BME280;61560;33.718;73.040;2023-04-29T04:40:12;94578.44;;;39.57;20.80
73332;BME280;61560;33.718;73.040;2023-04-29T04:42:59;94577.34;;;39.62;20.36
73332;BME280;61560;33.718;73.040;2023-04-29T04:45:27;94574.50;;;39.52;20.72
73332;BME280;61560;33.718;73.040;2023-04-29T04:48:15;94581.34;;;39.78;20.86
73332;BME280;61560;33.718;73.040;2023-04-29T04:51:10;94588.81;;;39.62;21.02
73332;BME280;61560;33.718;73.040;2023-04-29T04:53:38;94576.63;;;39.82;20.93
73332;BME280;61560;33.718;73.040;2023-04-29T04:56:19;94581.66;;;40.24;20.69
73332;BME280;61560;33.718;73.040;2023-04-29T04:59:05;94580.28;;;40.79;19.67
73332;BME280;61560;33.718;73.040;2023-04-29T05:01:50;94584.22;;;40.95;19.55
73332;BME280;61560;33.718;73.040;2023-04-29T05:04:35;94592.56;;;40.91;19.74
73332;BME280;61560;33.718;73.040;2023-04-29T05:07:03;94591.09;;;40.90;19.89
73332;BME280;61560;33.718;73.040;2023-04-29T05:09:39;94586.47;;;40.97;19.97
73332;BME280;61560;33.718;73.040;2023-04-29T05:12:05;94594.16;;;41.15;20.18
73332;BME280;61560;33.718;73.040;2023-04-29T05:14:32;94582.56;;;41.36;19.39
73332;BME280;61560;33.718;73.040;2023-04-29T05:17:17;94586.13;;;41.02;19.35
73332;BME280;61560;33.718;73.040;2023-04-29T05:20:03;94583.31;;;41.37;18.98
73332;BME280;61560;33.718;73.040;2023-04-29T05:22:32;94575.59;;;41.63;18.99
73332;BME280;61560;33.718;73.040;2023-04-29T05:24:59;94567.72;;;41.63;18.16
73332;BME280;61560;33.718;73.040;2023-04-29T05:27:46;94566.22;;;41.50;18.59
73332;BME280;61560;33.718;73.040;2023-04-29T05:30:31;94564.44;;;41.57;18.71
73332;BME280;61560;33.718;73.040;2023-04-29T05:33:17;94568.97;;;41.72;16.96
73332;BME280;61560;33.718;73.040;2023-04-29T05:35:44;94569.59;;;41.58;16.84
73332;BME280;61560;33.718;73.040;2023-04-29T05:38:11;94573.06;;;41.57;16.90
73332;BME280;61560;33.718;73.040;2023-04-29T05:40:56;94571.97;;;41.50;17.09
73332;BME280;61560;33.718;73.040;2023-04-29T05:43:41;94570.56;;;41.40;16.98
73332;BME280;61560;33.718;73.040;2023-04-29T05:46:27;94563.31;;;41.27;17.78
73332;BME280;61560;33.718;73.040;2023-04-29T05:49:12;94562.66;;;41.17;18.27
73332;BME280;61560;33.718;73.040;2023-04-29T05:51:41;94559.22;;;40.98;18.35
73332;BME280;61560;33.718;73.040;2023-04-29T05:54:07;94558.13;;;41.03;18.90
73332;BME280;61560;33.718;73.040;2023-04-29T05:56:33;94558.72;;;40.90;19.19
73332;BME280;61560;33.718;73.040;2023-04-29T05:59:01;94553.75;;;40.57;19.64
73332;BME280;61560;33.718;73.040;2023-04-29T06:01:28;94554.47;;;40.25;19.72
73332;BME280;61560;33.718;73.040;2023-04-29T06:03:56;94543.94;;;39.97;19.85
73332;BME280;61560;33.718;73.040;2023-04-29T06:06:35;94546.88;;;39.26;20.01
73332;BME280;61560;33.718;73.040;2023-04-29T06:09:08;94544.31;;;38.71;19.74
73332;BME280;61560;33.718;73.040;2023-04-29T06:11:35;94546.41;;;38.22;20.34
73332;BME280;61560;33.718;73.040;2023-04-29T06:14:02;94539.75;;;37.72;21.47
73332;BME280;61560;33.718;73.040;2023-04-29T06:16:28;94539.84;;;37.36;21.91
73332;BME280;61560;33.718;73.040;2023-04-29T06:18:55;94534.13;;;37.09;22.41
73332;BME280;61560;33.718;73.040;2023-04-29T06:21:22;94531.88;;;36.81;21.87
73332;BME280;61560;33.718;73.040;2023-04-29T06:23:48;94536.19;;;36.29;21.31
73332;BME280;61560;33.718;73.040;2023-04-29T06:26:16;94536.22;;;35.94;22.21
73332;BME280;61560;33.718;73.040;2023-04-29T06:28:44;94533.84;;;35.66;22.64
73332;BME280;61560;33.718;73.040;2023-04-29T06:31:11;94531.50;;;35.30;23.21
73332;BME280;61560;33.718;73.040;2023-04-29T06:33:38;94527.06;;;35.37;22.80
73332;BME280;61560;33.718;73.040;2023-04-29T06:36:07;94522.75;;;35.11;23.05
73332;BME280;61560;33.718;73.040;2023-04-29T06:39:01;94527.31;;;35.31;23.17
73332;BME280;61560;33.718;73.040;2023-04-29T06:41:48;94508.94;;;35.25;24.06
73332;BME280;61560;33.718;73.040;2023-04-29T06:44:24;94509.81;;;35.10;24.20
73332;BME280;61560;33.718;73.040;2023-04-29T06:47:02;94514.38;;;35.13;23.07
73332;BME280;61560;33.718;73.040;2023-04-29T06:49:53;94513.00;;;34.90;23.19
73332;BME280;61560;33.718;73.040;2023-04-29T06:52:20;94510.97;;;34.83;23.25
73332;BME280;61560;33.718;73.040;2023-04-29T06:54:47;94515.97;;;34.75;22.62
73332;BME280;61560;33.718;73.040;2023-04-29T06:57:17;94506.59;;;34.57;22.69
73332;BME280;61560;33.718;73.040;2023-04-29T06:59:45;94512.97;;;34.33;22.53
73332;BME280;61560;33.718;73.040;2023-04-29T07:02:13;94506.97;;;34.21;22.31
73332;BME280;61560;33.718;73.040;2023-04-29T07:04:39;94502.19;;;34.24;22.54
73332;BME280;61560;33.718;73.040;2023-04-29T07:07:07;94508.06;;;34.26;23.65
73332;BME280;61560;33.718;73.040;2023-04-29T07:09:34;94499.25;;;34.07;23.25
73332;BME280;61560;33.718;73.040;2023-04-29T07:12:03;94501.34;;;34.06;23.50
73332;BME280;61560;33.718;73.040;2023-04-29T07:14:30;94495.50;;;33.97;23.36
73332;BME280;61560;33.718;73.040;2023-04-29T07:16:57;94493.03;;;34.01;24.22
73332;BME280;61560;33.718;73.040;2023-04-29T07:19:24;94489.75;;;34.12;24.38
73332;BME280;61560;33.718;73.040;2023-04-29T07:21:51;94483.53;;;33.98;24.82
73332;BME280;61560;33.718;73.040;2023-04-29T07:24:17;94486.78;;;33.95;24.73
73332;BME280;61560;33.718;73.040;2023-04-29T07:26:46;94488.31;;;33.88;24.90
73332;BME280;61560;33.718;73.040;2023-04-29T07:29:15;94486.50;;;33.68;24.45
73332;BME280;61560;33.718;73.040;2023-04-29T07:31:41;94476.88;;;33.48;24.49
73332;BME280;61560;33.718;73.040;2023-04-29T07:34:10;94472.72;;;33.57;24.63
73332;BME280;61560;33.718;73.040;2023-04-29T07:36:37;94472.13;;;33.58;25.33
73332;BME280;61560;33.718;73.040;2023-04-29T07:39:05;94474.59;;;33.47;24.83
73332;BME280;61560;33.718;73.040;2023-04-29T07:41:31;94466.66;;;33.53;24.99
73332;BME280;61560;33.718;73.040;2023-04-29T07:43:58;94462.44;;;33.69;24.69
73332;BME280;61560;33.718;73.040;2023-04-29T07:46:25;94468.13;;;33.76;24.14
73332;BME280;61560;33.718;73.040;2023-04-29T07:48:52;94463.19;;;33.69;24.04
73332;BME280;61560;33.718;73.040;2023-04-29T07:51:18;94463.44;;;33.34;23.84
73332;BME280;61560;33.718;73.040;2023-04-29T07:53:45;94460.47;;;33.24;24.77
73332;BME280;61560;33.718;73.040;2023-04-29T07:56:11;94458.94;;;33.16;24.12
73332;BME280;61560;33.718;73.040;2023-04-29T07:58:39;94453.66;;;33.27;24.42
73332;BME280;61560;33.718;73.040;2023-04-29T08:01:09;94450.41;;;33.31;23.67
73332;BME280;61560;33.718;73.040;2023-04-29T08:03:37;94450.25;;;33.14;23.36
73332;BME280;61560;33.718;73.040;2023-04-29T08:06:05;94445.94;;;32.97;23.77
73332;BME280;61560;33.718;73.040;2023-04-29T08:08:34;94447.25;;;33.04;24.27
73332;BME280;61560;33.718;73.040;2023-04-29T08:11:00;94437.03;;;33.01;23.80
73332;BME280;61560;33.718;73.040;2023-04-29T08:13:28;94441.16;;;32.92;23.88
73332;BME280;61560;33.718;73.040;2023-04-29T08:15:54;94440.59;;;32.86;24.16
73332;BME280;61560;33.718;73.040;2023-04-29T08:18:21;94431.53;;;32.88;23.52
73332;BME280;61560;33.718;73.040;2023-04-29T08:20:48;94426.41;;;32.94;24.49
73332;BME280;61560;33.718;73.040;2023-04-29T08:23:14;94426.06;;;32.97;24.18
73332;BME280;61560;33.718;73.040;2023-04-29T08:25:42;94417.72;;;33.07;25.03
73332;BME280;61560;33.718;73.040;2023-04-29T08:28:09;94413.94;;;33.04;25.52
73332;BME280;61560;33.718;73.040;2023-04-29T08:30:42;94411.66;;;33.03;25.41
73332;BME280;61560;33.718;73.040;2023-04-29T08:33:09;94405.78;;;32.93;24.67
73332;BME280;61560;33.718;73.040;2023-04-29T08:35:37;94409.22;;;32.92;24.45
73332;BME280;61560;33.718;73.040;2023-04-29T08:38:05;94403.91;;;32.81;24.37
73332;BME280;61560;33.718;73.040;2023-04-29T08:40:35;94393.72;;;32.78;24.68
73332;BME280;61560;33.718;73.040;2023-04-29T08:43:07;94396.72;;;32.87;25.50
73332;BME280;61560;33.718;73.040;2023-04-29T08:45:35;94394.25;;;32.91;24.99
73332;BME280;61560;33.718;73.040;2023-04-29T08:48:03;94386.50;;;32.99;25.41
73332;BME280;61560;33.718;73.040;2023-04-29T08:50:30;94382.91;;;32.99;25.43
73332;BME280;61560;33.718;73.040;2023-04-29T08:53:01;94384.25;;;32.98;24.22
73332;BME280;61560;33.718;73.040;2023-04-29T08:55:28;94377.59;;;32.95;24.00
73332;BME280;61560;33.718;73.040;2023-04-29T08:57:55;94371.16;;;32.95;24.84
73332;BME280;61560;33.718;73.040;2023-04-29T09:00:23;94362.09;;;32.89;24.04
73332;BME280;61560;33.718;73.040;2023-04-29T09:02:52;94358.88;;;32.85;23.82
73332;BME280;61560;33.718;73.040;2023-04-29T09:05:21;94363.28;;;32.71;24.13
73332;BME280;61560;33.718;73.040;2023-04-29T09:07:50;94357.63;;;32.63;24.67
73332;BME280;61560;33.718;73.040;2023-04-29T09:10:17;94361.75;;;32.62;25.12
73332;BME280;61560;33.718;73.040;2023-04-29T09:12:44;94354.78;;;32.56;24.93
73332;BME280;61560;33.718;73.040;2023-04-29T09:15:11;94343.41;;;32.56;24.60
73332;BME280;61560;33.718;73.040;2023-04-29T09:17:40;94337.00;;;32.63;24.56
73332;BME280;61560;33.718;73.040;2023-04-29T09:22:59;94335.66;;;32.71;24.73
73332;BME280;61560;33.718;73.040;2023-04-29T09:25:27;94334.91;;;32.56;24.03
73332;BME280;61560;33.718;73.040;2023-04-29T09:27:54;94322.28;;;32.49;24.80
73332;BME280;61560;33.718;73.040;2023-04-29T09:30:22;94316.78;;;32.36;24.92
73332;BME280;61560;33.718;73.040;2023-04-29T09:33:06;94315.84;;;32.26;24.80
73332;BME280;61560;33.718;73.040;2023-04-29T09:35:33;94309.00;;;32.29;25.11
73332;BME280;61560;33.718;73.040;2023-04-29T09:38:11;94311.66;;;32.27;25.47
73332;BME280;61560;33.718;73.040;2023-04-29T09:40:39;94308.06;;;32.34;25.59
73332;BME280;61560;33.718;73.040;2023-04-29T09:43:12;94303.91;;;32.35;26.03
73332;BME280;61560;33.718;73.040;2023-04-29T09:45:44;94297.31;;;32.48;25.96
73332;BME280;61560;33.718;73.040;2023-04-29T09:48:12;94298.44;;;32.52;26.43
73332;BME280;61560;33.718;73.040;2023-04-29T09:50:41;94294.66;;;32.57;25.93
73332;BME280;61560;33.718;73.040;2023-04-29T09:53:10;94290.69;;;32.53;26.04
73332;BME280;61560;33.718;73.040;2023-04-29T09:58:30;94283.69;;;32.54;26.18
73332;BME280;61560;33.718;73.040;2023-04-29T10:01:02;94268.56;;;32.44;25.31
73332;BME280;61560;33.718;73.040;2023-04-29T10:03:36;94274.63;;;32.40;24.99
73332;BME280;61560;33.718;73.040;2023-04-29T10:06:05;94269.34;;;32.37;25.88
73332;BME280;61560;33.718;73.040;2023-04-29T10:08:33;94270.47;;;32.34;25.96
73332;BME280;61560;33.718;73.040;2023-04-29T10:11:05;94265.19;;;32.30;25.72
73332;BME280;61560;33.718;73.040;2023-04-29T10:13:34;94265.94;;;32.31;25.79
73332;BME280;61560;33.718;73.040;2023-04-29T10:16:14;94267.84;;;32.28;26.12
73332;BME280;61560;33.718;73.040;2023-04-29T10:18:52;94264.06;;;32.25;25.82
73332;BME280;61560;33.718;73.040;2023-04-29T10:21:20;94261.59;;;32.22;24.43
73332;BME280;61560;33.718;73.040;2023-04-29T10:23:47;94258.94;;;32.16;24.96
73332;BME280;61560;33.718;73.040;2023-04-29T10:26:15;94257.81;;;32.19;26.01
73332;BME280;61560;33.718;73.040;2023-04-29T10:28:43;94252.91;;;32.20;25.36
73332;BME280;61560;33.718;73.040;2023-04-29T10:31:13;94250.06;;;32.12;25.44
73332;BME280;61560;33.718;73.040;2023-04-29T10:33:42;94248.19;;;32.07;25.79
73332;BME280;61560;33.718;73.040;2023-04-29T10:36:14;94250.84;;;32.05;25.69
73332;BME280;61560;33.718;73.040;2023-04-29T10:38:52;94251.22;;;32.02;25.66
73332;BME280;61560;33.718;73.040;2023-04-29T10:41:26;94244.63;;;31.99;25.58
73332;BME280;61560;33.718;73.040;2023-04-29T10:43:54;94235.75;;;31.95;25.94
73332;BME280;61560;33.718;73.040;2023-04-29T10:46:22;94229.50;;;31.97;25.69
73332;BME280;61560;33.718;73.040;2023-04-29T10:48:54;94231.97;;;31.93;25.63
73332;BME280;61560;33.718;73.040;2023-04-29T10:51:29;94236.09;;;31.84;25.61
73332;BME280;61560;33.718;73.040;2023-04-29T10:56:50;94233.25;;;31.77;26.23
73332;BME280;61560;33.718;73.040;2023-04-29T11:01:59;94223.59;;;31.80;26.18
73332;BME280;61560;33.718;73.040;2023-04-29T11:04:25;94219.28;;;31.79;25.77
73332;BME280;61560;33.718;73.040;2023-04-29T11:06:54;94210.78;;;31.79;25.65
73332;BME280;61560;33.718;73.040;2023-04-29T11:14:42;94200.75;;;31.78;26.29
73332;BME280;61560;33.718;73.040;2023-04-29T11:17:12;94203.97;;;31.82;27.39
73332;BME280;61560;33.718;73.040;2023-04-29T11:19:42;94199.28;;;31.77;27.64
73332;BME280;61560;33.718;73.040;2023-04-29T11:24:57;94190.56;;;31.67;27.30
73332;BME280;61560;33.718;73.040;2023-04-29T11:27:33;94204.34;;;31.63;27.10
73332;BME280;61560;33.718;73.040;2023-04-29T11:30:05;94190.97;;;31.56;26.75
73332;BME280;61560;33.718;73.040;2023-04-29T11:32:37;94193.78;;;31.48;27.14
73332;BME280;61560;33.718;73.040;2023-04-29T11:37:37;94186.78;;;31.49;27.44
73332;BME280;61560;33.718;73.040;2023-04-29T11:40:05;94187.00;;;31.52;28.60
73332;BME280;61560;33.718;73.040;2023-04-29T11:42:45;94191.16;;;31.51;29.12
73332;BME280;61560;33.718;73.040;2023-04-29T11:45:13;94178.88;;;31.48;28.68
73332;BME280;61560;33.718;73.040;2023-04-29T11:47:44;94179.81;;;31.43;28.89
73332;BME280;61560;33.718;73.040;2023-04-29T11:50:16;94174.53;;;31.39;28.95
73332;BME280;61560;33.718;73.040;2023-04-29T11:52:48;94172.59;;;31.34;28.97
73332;BME280;61560;33.718;73.040;2023-04-29T11:55:15;94169.19;;;31.28;28.90
73332;BME280;61560;33.718;73.040;2023-04-29T11:57:41;94169.56;;;31.25;28.57
73332;BME280;61560;33.718;73.040;2023-04-29T12:00:12;94162.78;;;31.20;28.75
73332;BME280;61560;33.718;73.040;2023-04-29T12:02:45;94157.09;;;31.13;29.07
73332;BME280;61560;33.718;73.040;2023-04-29T12:05:12;94165.22;;;31.09;28.85
73332;BME280;61560;33.718;73.040;2023-04-29T12:07:40;94163.31;;;31.04;29.18
73332;BME280;61560;33.718;73.040;2023-04-29T12:10:09;94164.06;;;30.97;29.42
73332;BME280;61560;33.718;73.040;2023-04-29T12:12:37;94163.47;;;30.91;29.67
73332;BME280;61560;33.718;73.040;2023-04-29T12:15:07;94160.25;;;30.87;29.47
73332;BME280;61560;33.718;73.040;2023-04-29T12:17:40;94152.84;;;30.76;29.29
73332;BME280;61560;33.718;73.040;2023-04-29T12:20:08;94153.97;;;30.73;29.15
73332;BME280;61560;33.718;73.040;2023-04-29T12:22:35;94158.50;;;30.68;29.94
73332;BME280;61560;33.718;73.040;2023-04-29T12:25:02;94165.06;;;30.63;29.92
73332;BME280;61560;33.718;73.040;2023-04-29T12:27:29;94154.66;;;30.58;30.18
73332;BME280;61560;33.718;73.040;2023-04-29T12:29:56;94157.84;;;30.55;30.37
73332;BME280;61560;33.718;73.040;2023-04-29T12:32:24;94151.06;;;30.50;30.61
73332;BME280;61560;33.718;73.040;2023-04-29T12:34:51;94151.41;;;30.47;31.00
73332;BME280;61560;33.718;73.040;2023-04-29T12:37:18;94152.16;;;30.40;31.36
73332;BME280;61560;33.718;73.040;2023-04-29T12:39:49;94143.84;;;30.34;31.75
73332;BME280;61560;33.718;73.040;2023-04-29T12:42:16;94149.09;;;30.30;32.22
73332;BME280;61560;33.718;73.040;2023-04-29T12:44:46;94156.19;;;30.24;32.49
73332;BME280;61560;33.718;73.040;2023-04-29T12:47:14;94162.97;;;30.21;32.59
73332;BME280;61560;33.718;73.040;2023-04-29T12:49:44;94158.78;;;30.14;32.83
73332;BME280;61560;33.718;73.040;2023-04-29T12:52:11;94162.31;;;30.07;33.28
73332;BME280;61560;33.718;73.040;2023-04-29T12:54:39;94171.69;;;30.02;33.64
73332;BME280;61560;33.718;73.040;2023-04-29T12:57:10;94175.44;;;29.97;33.86
73332;BME280;61560;33.718;73.040;2023-04-29T12:59:37;94170.69;;;29.92;34.06
73332;BME280;61560;33.718;73.040;2023-04-29T13:02:06;94177.03;;;29.85;34.24
73332;BME280;61560;33.718;73.040;2023-04-29T13:04:33;94173.63;;;29.79;34.05
73332;BME280;61560;33.718;73.040;2023-04-29T13:07:01;94176.03;;;29.75;34.44
73332;BME280;61560;33.718;73.040;2023-04-29T13:09:29;94168.25;;;29.68;34.38
73332;BME280;61560;33.718;73.040;2023-04-29T13:11:57;94175.56;;;29.63;34.71
73332;BME280;61560;33.718;73.040;2023-04-29T13:14:23;94175.84;;;29.52;35.22
73332;BME280;61560;33.718;73.040;2023-04-29T13:16:51;94178.03;;;29.46;35.69
73332;BME280;61560;33.718;73.040;2023-04-29T13:19:18;94187.75;;;29.38;36.31
73332;BME280;61560;33.718;73.040;2023-04-29T13:21:45;94183.34;;;29.29;37.02
73332;BME280;61560;33.718;73.040;2023-04-29T13:24:13;94186.66;;;29.20;36.64
73332;BME280;61560;33.718;73.040;2023-04-29T13:26:42;94194.47;;;29.14;37.00
73332;BME280;61560;33.718;73.040;2023-04-29T13:29:09;94188.72;;;29.06;36.94
73332;BME280;61560;33.718;73.040;2023-04-29T13:31:36;94193.31;;;28.96;36.43
73332;BME280;61560;33.718;73.040;2023-04-29T13:34:02;94191.75;;;28.88;37.17
73332;BME280;61560;33.718;73.040;2023-04-29T13:36:29;94193.91;;;28.82;36.83